Time;durP1;ratioP1;P1;durP2;ratioP2;P2;SDS_P1;SDS_P2;PMS_P1;PMS_P2;Temp;Humidity;BMP_temperature;BMP_pressure;BME280_temperature;BME280_humidity;BME280_pressure;Samples;Min_cycle;Max_cycle;Signal;HPM_P1;HPM_P2
2023/05/05 03:32:55;;;;;;;28.23;13.73;;;13.80;99.90;;;;;;6285138;22;20027;-93
2023/05/05 03:35:32;;;;;;;;;;;;;;;;;;;;;
2023/05/05 03:38:14;;;;;;;29.08;14.48;;;13.90;99.90;;;;;;6251313;22;20012;-92
2023/05/05 03:40:46;;;;;;;38.67;14.02;;;13.90;99.90;;;;;;6227913;22;20008;-91
2023/05/05 03:43:31;;;;;;;29.50;13.00;;;13.90;99.90;;;;;;6228398;22;20331;-92
2023/05/05 03:45:58;;;;;;;31.63;13.85;;;13.90;99.90;;;;;;6226746;22;20453;-92
2023/05/05 03:48:30;;;;;;;33.80;12.88;;;13.90;99.90;;;;;;6227218;22;19999;-92
2023/05/05 03:51:13;;;;;;;30.90;13.57;;;13.90;99.90;;;;;;6226554;22;20014;-94
2023/05/05 05:13:52;;;;;;;25.83;19.85;;;19.90;99.90;;;;;;6279121;22;20049;-94
2023/05/05 05:28:19;;;;;;;28.60;21.67;;;20.30;99.90;;;;;;6262697;22;20028;-92
2023/05/05 09:47:36;;;;;;;24.48;22.63;;;21.30;99.90;;;;;;6268167;22;20097;-92
2023/05/05 09:50:03;;;;;;;25.92;23.30;;;21.40;99.90;;;;;;6225374;22;20003;-92
2023/05/05 09:52:29;;;;;;;24.15;22.35;;;21.30;99.90;;;;;;6226741;22;20083;-92
2023/05/05 09:54:57;;;;;;;25.30;23.45;;;21.40;99.90;;;;;;6227412;22;20011;-91
2023/05/05 09:57:32;;;;;;;25.10;23.40;;;21.40;99.90;;;;;;6227219;22;19999;-92
2023/05/05 10:00:00;;;;;;;25.85;24.15;;;21.30;99.90;;;;;;6227221;22;20012;-93
2023/05/05 10:02:31;;;;;;;26.05;23.70;;;21.20;99.90;;;;;;6227502;22;20011;-93
2023/05/05 10:05:11;;;;;;;25.85;24.08;;;21.60;99.90;;;;;;6227723;22;20087;-91
2023/05/05 10:07:41;;;;;;;26.70;24.55;;;21.70;99.90;;;;;;6228497;22;20012;-92
2023/05/05 10:10:21;;;;;;;26.60;24.35;;;21.70;99.90;;;;;;6227424;22;20332;-93
2023/05/05 10:12:49;;;;;;;26.38;24.58;;;21.60;99.90;;;;;;6227534;22;20015;-93
2023/05/05 10:15:16;;;;;;;26.05;24.25;;;21.30;99.90;;;;;;6227332;22;20000;-93
2023/05/05 10:17:47;;;;;;;25.88;24.23;;;21.00;99.90;;;;;;6226986;22;20039;-91
2023/05/05 10:20:16;;;;;;;25.73;23.98;;;21.10;99.90;;;;;;6227914;22;20081;-93
2023/05/05 10:22:55;;;;;;;25.42;23.60;;;21.10;99.90;;;;;;6227727;22;20102;-93
2023/05/05 10:25:32;;;;;;;25.50;23.65;;;21.30;99.90;;;;;;6227543;22;20012;-93
2023/05/05 10:28:05;;;;;;;25.65;24.00;;;21.30;99.90;;;;;;6228706;22;20016;-93
2023/05/05 10:30:44;;;;;;;26.13;24.38;;;21.50;99.90;;;;;;6236945;22;20037;-93
2023/05/05 10:33:21;;;;;;;25.52;23.73;;;21.70;99.90;;;;;;6222687;23;20094;-92
2023/05/05 10:36:08;;;;;;;25.27;23.58;;;21.80;99.90;;;;;;6201283;23;20008;-94
2023/05/05 10:39:01;;;;;;;26.60;24.17;;;21.80;99.90;;;;;;6224661;23;20087;-93
2023/05/05 10:41:40;;;;;;;25.10;23.42;;;21.50;99.90;;;;;;6197909;23;20008;-93
2023/05/05 10:44:41;;;;;;;25.80;23.90;;;21.50;99.90;;;;;;6197875;23;20034;-93
2023/05/05 10:47:55;;;;;;;26.35;24.55;;;21.80;99.90;;;;;;6198958;22;20004;-93
2023/05/05 10:50:50;;;;;;;25.27;23.67;;;22.00;99.90;;;;;;6131247;23;20582;-92
2023/05/05 10:53:53;;;;;;;;;;;;;;;;;;;;;
2023/05/05 10:56:40;;;;;;;26.17;24.08;;;21.60;99.90;;;;;;6156310;23;20033;-93
2023/05/05 11:00:06;;;;;;;25.50;23.95;;;21.80;99.90;;;;;;6155655;23;20069;-92
2023/05/05 11:02:41;;;;;;;25.88;24.15;;;22.00;99.90;;;;;;6157314;23;20021;-91
2023/05/05 11:05:08;;;;;;;;;;;21.80;99.90;;;;;;6132605;23;20005;-93
2023/05/05 11:07:51;;;;;;;26.20;24.50;;;21.60;99.90;;;;;;6132465;23;19964;-94
2023/05/05 11:10:38;;;;;;;27.42;25.30;;;21.50;99.90;;;;;;6156465;23;20006;-92
2023/05/05 11:13:07;;;;;;;26.13;24.27;;;21.50;99.90;;;;;;6155774;23;20013;-92
2023/05/05 11:15:53;;;;;;;26.38;24.58;;;21.50;99.90;;;;;;6155423;23;20009;-94
2023/05/05 11:18:44;;;;;;;25.48;23.85;;;21.80;99.90;;;;;;6132032;23;20006;-95
2023/05/05 11:22:36;;;;;;;25.70;24.10;;;21.70;99.90;;;;;;6157133;23;20013;-93
2023/05/05 11:25:39;;;;;;;26.48;24.55;;;21.70;99.90;;;;;;5996793;23;20011;-93
2023/05/05 11:31:05;;;;;;;26.48;24.73;;;22.10;99.90;;;;;;6216762;23;20039;-92
2023/05/05 11:33:36;;;;;;;25.65;24.08;;;22.20;99.90;;;;;;6192148;23;20043;-92
2023/05/05 11:36:33;;;;;;;25.88;24.27;;;22.10;99.90;;;;;;6191654;23;20012;-92
2023/05/05 11:39:25;;;;;;;25.85;24.25;;;22.10;99.90;;;;;;6170641;23;20275;-94
2023/05/05 11:42:13;;;;;;;25.80;23.92;;;22.00;99.90;;;;;;6200906;22;20019;-93
2023/05/05 11:44:41;;;;;;;25.73;24.00;;;21.80;99.90;;;;;;6227220;22;20012;-92
2023/05/05 11:47:10;;;;;;;26.23;24.45;;;21.80;99.90;;;;;;6227569;22;20306;-94
2023/05/05 11:49:38;;;;;;;26.63;24.92;;;21.70;99.90;;;;;;6221664;23;20083;-92
2023/05/05 11:52:11;;;;;;;26.25;24.10;;;21.60;99.90;;;;;;6198392;23;20004;-93
2023/05/05 11:54:46;;;;;;;27.25;25.35;;;21.50;99.90;;;;;;6221854;23;20046;-93
2023/05/05 11:57:16;;;;;;;26.95;25.20;;;21.70;99.90;;;;;;6196701;23;20008;-93
2023/05/05 11:59:53;;;;;;;27.17;25.23;;;21.80;99.90;;;;;;6196414;23;20112;-93
2023/05/05 12:02:23;;;;;;;26.55;24.85;;;21.80;99.90;;;;;;6196935;23;20027;-92
2023/05/05 12:04:53;;;;;;;27.20;25.30;;;21.60;99.90;;;;;;6197201;23;20350;-92
2023/05/05 12:07:22;;;;;;;26.38;24.55;;;21.70;99.90;;;;;;6196228;23;20038;-92
2023/05/05 12:09:50;;;;;;;28.27;25.92;;;21.70;99.90;;;;;;6222993;23;20008;-94
2023/05/05 12:12:41;;;;;;;26.60;24.77;;;21.70;99.90;;;;;;6196777;23;20008;-94
2023/05/05 12:25:07;;;;;;;27.27;25.58;;;21.90;99.90;;;;;;6281232;22;20346;-94
2023/05/05 12:27:34;;;;;;;26.70;25.10;;;22.00;99.90;;;;;;6229078;22;20031;-94
2023/05/05 12:31:13;;;;;;;;;;;;;;;;;;;;;
2023/05/05 12:34:02;;;;;;;27.40;25.63;;;21.90;99.90;;;;;;6045146;23;20086;-94
2023/05/05 12:56:55;;;;;;;27.80;25.92;;;21.90;99.90;;;;;;6290042;22;20031;-93
2023/05/05 14:14:00;;;;;;;29.02;27.13;;;21.50;99.90;;;;;;6270895;22;20475;-93
2023/05/05 14:16:27;;;;;;;29.83;27.70;;;21.50;99.90;;;;;;6227287;22;20007;-90
2023/05/05 14:18:53;;;;;;;29.17;27.27;;;21.60;99.90;;;;;;6227969;22;20000;-91
2023/05/05 14:21:19;;;;;;;30.38;28.23;;;21.90;99.90;;;;;;6228186;22;20007;-90
2023/05/05 14:23:46;;;;;;;29.45;27.65;;;21.90;99.90;;;;;;6227153;22;20008;-91
2023/05/05 14:26:13;;;;;;;29.45;27.45;;;21.70;99.90;;;;;;6228699;22;20443;-91
2023/05/05 14:28:41;;;;;;;29.73;27.42;;;21.60;99.90;;;;;;6196806;23;20434;-93
2023/05/05 14:31:07;;;;;;;29.85;27.63;;;21.70;99.90;;;;;;6196269;23;20061;-91
2023/05/05 14:33:34;;;;;;;30.90;28.60;;;21.60;99.90;;;;;;6221409;23;20011;-92
2023/05/05 14:36:00;;;;;;;31.08;28.60;;;21.50;99.90;;;;;;6188889;23;20008;-91
2023/05/05 14:38:27;;;;;;;30.02;27.95;;;21.60;99.90;;;;;;6220914;23;20008;-91
2023/05/05 14:40:54;;;;;;;31.30;28.60;;;21.70;99.90;;;;;;6221273;23;20035;-93
2023/05/05 14:43:20;;;;;;;29.80;27.90;;;21.80;99.90;;;;;;6220866;22;20047;-90
2023/05/05 14:45:47;;;;;;;30.90;28.80;;;21.80;99.90;;;;;;6221147;23;20039;-91
2023/05/05 14:48:14;;;;;;;32.10;29.60;;;21.70;99.90;;;;;;6221012;23;20004;-91
2023/05/05 14:50:41;;;;;;;31.00;28.77;;;21.70;99.90;;;;;;6221106;23;20014;-91
2023/05/05 14:53:07;;;;;;;32.92;30.45;;;21.70;99.90;;;;;;6222481;22;20011;-93
2023/05/05 14:55:34;;;;;;;32.75;30.15;;;21.20;99.90;;;;;;6196227;23;20015;-90
2023/05/05 14:58:00;;;;;;;36.53;33.47;;;21.20;99.90;;;;;;6220896;23;20004;-90
2023/05/05 15:00:27;;;;;;;34.80;31.80;;;21.30;99.90;;;;;;6226599;22;20007;-91
2023/05/05 15:02:54;;;;;;;31.67;29.42;;;21.20;99.90;;;;;;6226950;22;20012;-91
2023/05/05 15:05:20;;;;;;;32.08;29.65;;;21.20;99.90;;;;;;6226924;22;20003;-92
2023/05/05 15:07:47;;;;;;;32.75;30.05;;;21.20;99.90;;;;;;6226850;22;20011;-93
2023/05/05 15:10:13;;;;;;;32.83;30.13;;;21.20;99.90;;;;;;6227241;22;20022;-94
2023/05/05 15:12:41;;;;;;;32.03;29.67;;;21.20;99.90;;;;;;6227030;22;20010;-92
2023/05/05 15:15:09;;;;;;;32.78;30.15;;;21.10;99.90;;;;;;6227458;22;20015;-92
2023/05/05 15:17:37;;;;;;;34.20;31.20;;;21.20;99.90;;;;;;6229662;22;20437;-92
2023/05/05 15:20:07;;;;;;;35.28;32.22;;;21.10;99.90;;;;;;6227370;22;20014;-92
2023/05/05 15:22:34;;;;;;;34.03;31.17;;;21.10;99.90;;;;;;6227600;22;20039;-92
2023/05/05 15:25:00;;;;;;;36.30;33.03;;;21.00;99.90;;;;;;6253065;22;20011;-90
2023/05/05 15:27:28;;;;;;;35.78;32.72;;;21.00;99.90;;;;;;6237353;22;20004;-91
2023/05/05 15:29:55;;;;;;;33.22;30.58;;;21.10;99.90;;;;;;6264131;22;20004;-92
2023/05/05 15:32:21;;;;;;;32.90;30.30;;;21.00;99.90;;;;;;6240333;22;20046;-91
2023/05/05 15:34:48;;;;;;;32.85;30.42;;;20.90;99.90;;;;;;6226615;22;20031;-94
2023/05/05 15:37:14;;;;;;;32.88;30.40;;;20.90;99.90;;;;;;6228347;22;20008;-93
2023/05/05 15:39:41;;;;;;;33.53;31.13;;;20.90;99.90;;;;;;6226340;22;20064;-92
2023/05/05 15:42:11;;;;;;;33.28;30.67;;;20.80;99.90;;;;;;6226243;22;20016;-90
2023/05/05 15:44:37;;;;;;;33.35;30.98;;;20.70;99.90;;;;;;6226161;22;20090;-93
2023/05/05 15:47:05;;;;;;;31.58;29.42;;;20.70;99.90;;;;;;6251947;22;20031;-92
2023/05/05 15:49:32;;;;;;;32.35;29.85;;;20.60;99.90;;;;;;6226181;22;20012;-91
2023/05/05 15:51:58;;;;;;;32.42;30.00;;;20.60;99.90;;;;;;6226319;22;20086;-93
2023/05/05 15:54:25;;;;;;;32.55;30.23;;;20.60;99.90;;;;;;6226147;22;20031;-92
2023/05/05 15:56:51;;;;;;;33.72;30.85;;;20.70;99.90;;;;;;6251594;22;20015;-92
2023/05/05 15:59:18;;;;;;;33.47;30.67;;;20.50;99.90;;;;;;6228100;22;20330;-90
2023/05/05 16:01:45;;;;;;;33.70;31.08;;;20.40;99.90;;;;;;6226567;22;20016;-91
2023/05/05 16:04:11;;;;;;;33.15;30.75;;;20.40;99.90;;;;;;6251450;22;20391;-94
2023/05/05 16:06:38;;;;;;;33.42;30.83;;;20.40;99.90;;;;;;6226075;22;20038;-92
2023/05/05 16:09:04;;;;;;;32.20;29.80;;;20.40;99.90;;;;;;6251142;22;20455;-92
2023/05/05 16:11:31;;;;;;;32.45;29.85;;;20.50;99.90;;;;;;6226154;22;20023;-89
2023/05/05 16:13:58;;;;;;;31.42;28.85;;;20.30;99.90;;;;;;6250721;22;20020;-90
2023/05/05 16:16:24;;;;;;;32.22;29.73;;;20.20;99.90;;;;;;6226127;22;20085;-91
2023/05/05 16:18:51;;;;;;;32.38;29.98;;;20.20;99.90;;;;;;6221759;22;20050;-92
2023/05/05 16:21:17;;;;;;;32.47;29.98;;;20.30;99.90;;;;;;6250941;22;20008;-92
2023/05/05 16:23:43;;;;;;;32.72;29.85;;;20.30;99.90;;;;;;6225707;22;20011;-91
2023/05/05 16:26:10;;;;;;;31.88;29.13;;;20.20;99.90;;;;;;6251395;22;20015;-91
2023/05/05 16:28:36;;;;;;;31.65;29.25;;;19.90;99.90;;;;;;6225751;22;20008;-90
2023/05/05 16:31:03;;;;;;;32.45;29.65;;;19.70;99.90;;;;;;6251069;22;20008;-91
2023/05/05 16:33:32;;;;;;;30.92;28.38;;;19.70;99.90;;;;;;6226175;22;20336;-94
2023/05/05 16:35:58;;;;;;;31.83;28.92;;;19.60;99.90;;;;;;6227911;22;20007;-91
2023/05/05 16:38:28;;;;;;;30.80;28.08;;;19.60;99.90;;;;;;6226447;22;20004;-92
2023/05/05 16:40:55;;;;;;;30.25;27.85;;;19.60;99.90;;;;;;6227727;22;20395;-93
2023/05/05 16:43:22;;;;;;;29.20;26.48;;;19.50;99.90;;;;;;6250626;22;20413;-92
2023/05/05 16:45:49;;;;;;;29.27;26.63;;;19.40;99.90;;;;;;6226118;22;20425;-91
2023/05/05 16:48:17;;;;;;;28.55;26.27;;;19.30;99.90;;;;;;6251235;22;20008;-93
2023/05/05 16:50:44;;;;;;;30.40;27.52;;;19.20;99.90;;;;;;6225808;22;19999;-93
2023/05/05 16:53:11;;;;;;;28.15;25.85;;;19.20;99.90;;;;;;6251432;22;20050;-91
2023/05/05 16:55:37;;;;;;;28.58;25.88;;;19.10;99.90;;;;;;6226967;22;20008;-92
2023/05/05 16:58:04;;;;;;;27.73;25.30;;;19.00;99.90;;;;;;6253876;22;20031;-92
2023/05/05 17:00:31;;;;;;;27.73;25.45;;;19.00;99.90;;;;;;6225955;22;20008;-90
2023/05/05 17:02:58;;;;;;;27.75;25.38;;;18.90;99.90;;;;;;6252659;22;20487;-91
2023/05/05 17:05:25;;;;;;;27.25;24.92;;;18.70;99.90;;;;;;6227818;22;20011;-90
2023/05/05 17:07:52;;;;;;;28.45;25.50;;;18.60;99.90;;;;;;6228603;22;20016;-91
2023/05/05 17:10:19;;;;;;;27.33;24.85;;;18.50;99.90;;;;;;6228492;22;20026;-92
2023/05/05 17:12:46;;;;;;;26.38;23.98;;;18.50;99.90;;;;;;6253244;22;20085;-91
2023/05/05 17:15:13;;;;;;;27.85;25.25;;;18.40;99.90;;;;;;6227453;22;20012;-94
2023/05/05 17:17:45;;;;;;;28.85;25.92;;;18.40;99.90;;;;;;6253980;22;20043;-93
2023/05/05 17:20:17;;;;;;;27.52;25.02;;;18.20;99.90;;;;;;6253619;22;20016;-92
2023/05/05 17:22:45;;;;;;;27.88;25.30;;;18.20;99.90;;;;;;6260779;22;20087;-92
2023/05/05 17:53:00;;;;;;;28.33;25.63;;;17.60;99.90;;;;;;6248562;22;20249;-93
2023/05/05 18:10:31;;;;;;;28.42;25.63;;;17.20;99.90;;;;;;6288803;22;20027;-93
2023/05/05 18:12:58;;;;;;;28.27;25.75;;;17.20;99.90;;;;;;6228396;22;20007;-93
2023/05/05 18:15:25;;;;;;;29.83;26.92;;;17.10;99.90;;;;;;6229190;22;20007;-92
2023/05/05 18:17:55;;;;;;;28.73;26.02;;;17.10;99.90;;;;;;6230148;22;20006;-93
2023/05/05 18:20:21;;;;;;;29.20;26.60;;;17.00;99.90;;;;;;6227854;22;20011;-91
2023/05/05 18:23:06;;;;;;;30.00;27.05;;;17.00;99.90;;;;;;6227730;22;20069;-92
2023/05/05 18:25:33;;;;;;;29.10;26.38;;;17.00;99.90;;;;;;6227333;22;20042;-90
2023/05/05 18:28:00;;;;;;;29.60;26.80;;;17.00;99.90;;;;;;6227653;22;20004;-90
2023/05/05 18:30:27;;;;;;;30.20;27.40;;;16.90;99.90;;;;;;6227410;22;20491;-92
2023/05/05 18:33:13;;;;;;;31.83;27.73;;;16.90;99.90;;;;;;6230985;22;20031;-93
2023/05/05 18:36:09;;;;;;;30.90;27.67;;;16.80;99.90;;;;;;6218334;22;20021;-93
2023/05/05 18:44:25;;;;;;;30.02;27.35;;;16.60;99.90;;;;;;6281396;22;20034;-93
2023/05/05 18:46:52;;;;;;;30.45;27.52;;;16.60;99.90;;;;;;6255296;22;20015;-94
2023/05/05 18:49:18;;;;;;;31.05;27.52;;;16.60;99.90;;;;;;6253257;22;20012;-96
2023/05/05 18:51:45;;;;;;;30.15;27.30;;;16.50;99.90;;;;;;6228085;22;20004;-92
2023/05/05 18:59:55;;;;;;;30.52;27.77;;;16.40;99.90;;;;;;6256728;22;20050;-93
2023/05/05 19:06:10;;;;;;;30.63;27.67;;;16.40;99.90;;;;;;6279064;22;19915;-94
2023/05/05 19:08:37;;;;;;;31.63;27.50;;;16.40;99.90;;;;;;6227374;22;20506;-93
2023/05/05 19:11:07;;;;;;;29.23;26.42;;;16.40;99.90;;;;;;6227106;22;20004;-93
2023/05/05 19:13:35;;;;;;;29.40;26.65;;;16.40;99.90;;;;;;6227994;22;20016;-93
2023/05/05 19:16:02;;;;;;;29.17;26.27;;;16.30;99.90;;;;;;6196940;23;20000;-92
2023/05/05 19:18:29;;;;;;;29.13;26.33;;;16.30;99.90;;;;;;6196627;23;20012;-93
2023/05/05 19:20:56;;;;;;;30.90;27.42;;;16.30;99.90;;;;;;6196779;23;20004;-94
2023/05/05 19:23:22;;;;;;;31.65;26.95;;;16.30;99.90;;;;;;6196090;23;20024;-93
2023/05/05 19:25:52;;;;;;;29.67;26.77;;;16.40;99.90;;;;;;6196522;23;20086;-92
2023/05/05 19:30:52;;;;;;;29.30;26.38;;;16.30;99.90;;;;;;6248904;23;20024;-91
2023/05/05 19:33:19;;;;;;;28.80;26.10;;;16.30;99.90;;;;;;6196931;23;20078;-93
2023/05/05 19:35:45;;;;;;;28.90;25.83;;;16.20;99.90;;;;;;6222090;23;20015;-94
2023/05/05 19:38:18;;;;;;;28.75;26.05;;;16.30;99.90;;;;;;6197131;23;20036;-93
2023/05/05 19:40:45;;;;;;;30.67;25.20;;;16.20;99.90;;;;;;6223337;23;20035;-92
2023/05/05 19:43:45;;;;;;;27.05;24.20;;;16.20;99.90;;;;;;6198516;23;20035;-93
2023/05/05 19:46:26;;;;;;;32.72;24.95;;;16.10;99.90;;;;;;6227601;23;20026;-92
2023/05/05 19:48:53;;;;;;;29.08;26.17;;;16.10;99.90;;;;;;6196275;23;20020;-94
2023/05/05 19:51:20;;;;;;;28.92;26.25;;;16.10;99.90;;;;;;6197197;23;20011;-94
2023/05/05 19:53:47;;;;;;;28.60;25.63;;;16.00;99.90;;;;;;6196761;23;20087;-93
2023/05/05 19:56:14;;;;;;;29.55;26.83;;;16.00;99.90;;;;;;6196454;23;20007;-92
2023/05/05 19:59:00;;;;;;;32.63;28.30;;;15.90;99.90;;;;;;6221082;23;20004;-92
2023/05/05 20:01:28;;;;;;;33.63;30.23;;;15.70;99.90;;;;;;6195959;23;20056;-92
2023/05/05 20:03:55;;;;;;;36.03;30.98;;;15.60;99.90;;;;;;6195759;23;20012;-93
2023/05/05 20:06:22;;;;;;;33.30;29.60;;;15.50;99.90;;;;;;6195909;23;20091;-93
2023/05/05 20:08:49;;;;;;;33.35;28.83;;;15.40;99.90;;;;;;6196048;23;20032;-94
2023/05/05 20:11:17;;;;;;;32.03;28.58;;;15.40;99.90;;;;;;6220971;23;20008;-92
2023/05/05 20:13:43;;;;;;;30.95;27.48;;;15.30;99.90;;;;;;6196041;23;20008;-94
2023/05/05 20:16:10;;;;;;;30.65;27.52;;;15.40;99.90;;;;;;6196353;23;20028;-92
2023/05/05 20:18:37;;;;;;;30.05;27.02;;;15.40;99.90;;;;;;6197731;23;20501;-93
2023/05/05 20:21:04;;;;;;;29.85;26.60;;;15.30;99.90;;;;;;6224838;23;20031;-92
2023/05/05 20:23:34;;;;;;;29.10;26.05;;;15.40;99.90;;;;;;6203960;23;20011;-94
2023/05/05 20:26:01;;;;;;;32.10;26.00;;;15.40;99.90;;;;;;6206080;23;20031;-94
2023/05/05 20:28:30;;;;;;;28.70;25.60;;;15.40;99.90;;;;;;6198658;23;20323;-93
2023/05/05 20:30:56;;;;;;;28.13;25.25;;;15.40;99.90;;;;;;6219482;23;20012;-94
2023/05/05 20:33:23;;;;;;;32.97;23.90;;;15.40;99.90;;;;;;6221301;23;20082;-94
2023/05/05 20:35:50;;;;;;;31.40;23.98;;;15.40;99.90;;;;;;6220800;23;20063;-92
2023/05/05 20:38:17;;;;;;;28.77;23.55;;;15.40;99.90;;;;;;6246012;23;20054;-93
2023/05/05 20:40:46;;;;;;;34.38;23.73;;;15.40;99.90;;;;;;6221074;23;20066;-94
2023/05/05 20:43:12;;;;;;;25.38;22.60;;;15.40;99.90;;;;;;6220841;23;20024;-92
2023/05/05 20:45:39;;;;;;;25.02;21.13;;;15.40;99.90;;;;;;6220812;23;20006;-93
2023/05/05 20:48:08;;;;;;;27.52;21.15;;;15.40;99.90;;;;;;6220765;23;20012;-93
2023/05/05 20:50:38;;;;;;;27.58;20.58;;;15.40;99.90;;;;;;6221878;23;20004;-94
2023/05/05 20:53:18;;;;;;;25.02;19.60;;;15.40;99.90;;;;;;6222359;23;20034;-93
2023/05/05 20:55:55;;;;;;;29.27;19.75;;;15.40;99.90;;;;;;6226016;23;20338;-94
2023/05/05 20:58:22;;;;;;;23.38;18.55;;;15.30;99.90;;;;;;6197066;23;20008;-93
2023/05/05 21:00:49;;;;;;;24.27;18.30;;;15.40;99.90;;;;;;6221283;23;20011;-94
2023/05/05 21:03:16;;;;;;;33.90;19.33;;;15.30;99.90;;;;;;6220902;23;20016;-93
2023/05/05 21:05:43;;;;;;;26.67;17.75;;;15.30;99.90;;;;;;6219178;23;20016;-93
2023/05/05 21:08:10;;;;;;;24.67;17.58;;;15.30;99.90;;;;;;6222268;23;20004;-94
2023/05/05 21:10:37;;;;;;;22.63;17.52;;;15.30;99.90;;;;;;6221280;23;20012;-91
2023/05/05 21:13:03;;;;;;;23.50;17.55;;;15.20;99.90;;;;;;6221013;23;20036;-94
2023/05/05 21:15:40;;;;;;;24.60;18.67;;;15.20;99.90;;;;;;6221282;23;20008;-94
2023/05/05 21:18:07;;;;;;;27.08;18.23;;;15.20;99.90;;;;;;6221749;23;20008;-94
2023/05/05 21:20:54;;;;;;;;;;;;;;;;;;;;;
2023/05/05 21:23:27;;;;;;;40.03;18.15;;;15.20;99.90;;;;;;6246315;23;20016;-95
2023/05/05 21:25:53;;;;;;;29.85;18.23;;;15.10;99.90;;;;;;6221911;23;20315;-94
2023/05/05 21:28:41;;;;;;;31.55;19.38;;;15.10;99.90;;;;;;6228177;23;20008;-95
2023/05/05 21:31:37;;;;;;;27.42;18.85;;;15.00;99.90;;;;;;6168893;23;20044;-94
2023/05/05 21:34:08;;;;;;;27.55;18.80;;;14.80;99.90;;;;;;6189848;23;20066;-93
2023/05/05 21:39:16;;;;;;;29.35;19.70;;;14.70;99.90;;;;;;6278553;22;20020;-94
2023/05/05 21:41:59;;;;;;;27.88;17.95;;;14.60;99.90;;;;;;6232359;22;20043;-93
2023/05/05 21:45:16;;;;;;;;;;;;;;;;;;;;;
2023/05/05 21:56:11;;;;;;;33.20;16.83;;;14.60;99.90;;;;;;6278396;22;20502;-92
2023/05/05 22:10:00;;;;;;;30.55;16.95;;;14.70;99.90;;;;;;6189674;23;20032;-92
2023/05/05 22:12:27;;;;;;;28.27;15.38;;;14.80;99.90;;;;;;6140465;23;20005;-92
2023/05/05 22:14:56;;;;;;;20.58;14.60;;;14.80;99.90;;;;;;6164376;23;20079;-92
2023/05/05 22:17:25;;;;;;;28.85;15.88;;;14.80;99.90;;;;;;6138739;23;20108;-93
2023/05/05 22:19:53;;;;;;;29.60;16.77;;;14.80;99.90;;;;;;6163095;23;20112;-93
2023/05/05 22:22:20;;;;;;;25.92;15.98;;;14.80;99.90;;;;;;6139632;23;20024;-94
2023/05/05 22:24:48;;;;;;;27.77;14.77;;;14.80;99.90;;;;;;6164622;23;20076;-93
2023/05/05 22:27:24;;;;;;;31.23;16.65;;;14.80;99.90;;;;;;6138263;23;20037;-92
2023/05/05 22:30:06;;;;;;;26.90;15.63;;;14.80;99.90;;;;;;6163246;23;20040;-94
2023/05/05 22:37:24;;;;;;;;;;;;;;;;;;;;;
2023/05/05 22:52:11;;;;;;;26.38;15.18;;;14.60;99.90;;;;;;5849820;24;20098;-92
2023/05/05 22:55:16;;;;;;;27.83;15.10;;;14.50;99.90;;;;;;5847662;24;20493;-93
2023/05/05 22:57:54;;;;;;;;;;;14.50;99.90;;;;;;5806583;24;20090;-93
2023/05/05 23:00:49;;;;;;;26.60;14.48;;;14.50;99.90;;;;;;5772880;24;20343;-93
2023/05/05 23:03:39;;;;;;;33.90;14.65;;;14.50;99.90;;;;;;5768617;24;20450;-92
2023/05/05 23:06:09;;;;;;;22.38;13.77;;;14.60;99.90;;;;;;5769595;24;20016;-92
2023/05/05 23:08:43;;;;;;;22.95;14.32;;;14.60;99.90;;;;;;5767626;24;20027;-93
2023/05/05 23:11:21;;;;;;;21.98;14.32;;;14.60;99.90;;;;;;5767548;24;20102;-92
2023/05/05 23:13:55;;;;;;;26.38;13.95;;;14.60;99.90;;;;;;5846820;24;20346;-92
2023/05/05 23:16:22;;;;;;;28.02;14.82;;;14.60;99.90;;;;;;5846639;24;20027;-93
2023/05/05 23:18:48;;;;;;;22.83;14.95;;;14.60;99.90;;;;;;5846383;24;20465;-93
2023/05/05 23:21:15;;;;;;;25.95;14.98;;;14.60;99.90;;;;;;5961290;24;20016;-92
2023/05/05 23:23:41;;;;;;;26.52;15.00;;;14.60;99.90;;;;;;6006642;23;20083;-93
2023/05/05 23:26:07;;;;;;;24.40;15.00;;;14.60;99.90;;;;;;5983007;24;20009;-91
2023/05/05 23:28:34;;;;;;;25.02;14.98;;;14.60;99.90;;;;;;6006852;23;20094;-92
2023/05/05 23:31:01;;;;;;;27.00;14.85;;;14.60;99.90;;;;;;5983034;23;20100;-92
2023/05/05 23:33:27;;;;;;;26.20;15.20;;;14.60;99.90;;;;;;6014797;23;20032;-92
2023/05/05 23:35:54;;;;;;;22.77;14.65;;;14.60;99.90;;;;;;6020489;23;20475;-92
2023/05/05 23:38:20;;;;;;;25.40;15.00;;;14.60;99.90;;;;;;6020483;23;20013;-92
2023/05/05 23:40:47;;;;;;;24.75;14.65;;;14.60;99.90;;;;;;6131573;23;20082;-91
2023/05/05 23:43:13;;;;;;;24.10;15.07;;;14.50;99.90;;;;;;6185716;23;20020;-92
2023/05/05 23:45:39;;;;;;;27.92;15.68;;;14.50;99.90;;;;;;6137411;23;20308;-93
2023/05/05 23:48:06;;;;;;;25.65;14.85;;;14.50;99.90;;;;;;6136697;23;20009;-92
2023/05/05 23:50:33;;;;;;;30.55;15.75;;;14.50;99.90;;;;;;6136571;23;20060;-92
2023/05/05 23:53:00;;;;;;;28.52;14.05;;;14.50;99.90;;;;;;6136858;23;20012;-89
2023/05/05 23:55:26;;;;;;;27.83;14.32;;;14.50;99.90;;;;;;6136751;23;20005;-90
2023/05/05 23:57:53;;;;;;;24.08;13.75;;;14.40;99.90;;;;;;6161377;23;20084;-90
